• Join FlightAware (Why Join?)
  • Login
  • US Flag 
07:40PM EDT


 

Airport Tracker/Info


-or-


 

Live Flight TrackerFlight Track Log ✈ N330XX ✈ 01-Oct-2013 ✈ KCLT - KAPF

Flight Track Log - Related Links

Times and Time Zones

All times are in EDT time to prevent confusion due to time zone crossing. See the N330XX flight status page for this flight to view local times or setup timezone preferences in your user account.

Time Position Orientation Groundspeed Altitude Reporting Facility
EDT Latitude Longitude Course Direction KTS MPH feet Rate Location/Type
11:09AM 35.2242 -80.9394 14° North 149 171 1,400  Level Atlanta Center
11:10AM 35.2719 -80.9250 14° North 205 236 3,000 1,860 Climbing Atlanta Center
11:11AM 35.2975 -80.8606 64° Northeast 269 310 5,000 1,740 Climbing Atlanta Center
11:12AM 35.2736 -80.8231 128° Southeast 277 319 5,800 1,800 Climbing Atlanta Center
11:12AM 35.2356 -80.8094 164° South 289 333 6,800 1,860 Climbing Atlanta Center
11:13AM 35.1922 -80.8314 202° Southwest 293 337 7,700 1,740 Climbing Atlanta Center
11:13AM 35.1614 -80.8428 197° South 296 341 8,600 1,560 Climbing Atlanta Center
11:14AM 35.1242 -80.8569 197° South 299 344 9,300 1,560 Climbing Atlanta Center
11:14AM 35.0808 -80.8789 203° Southwest 303 349 10,200 1,560 Climbing Atlanta Center
11:15AM 35.0375 -80.8958 198° South 317 365 10,900 1,740 Climbing Atlanta Center
11:16AM 34.9611 -80.9317 201° Southwest 331 381 12,900 1,920 Climbing Atlanta Center
11:17AM 34.8847 -80.9647 200° South 307 353 14,800 1,800 Climbing Atlanta Center
11:18AM 34.8125 -80.9978 201° Southwest 295 339 16,600 1,500 Climbing Atlanta Center
11:20AM 34.6722 -81.0597 200° South 290 334 19,400 1,440 Climbing Jacksonville Center
11:21AM 34.5975 -81.0917 199° South 290 334 20,900 1,380 Climbing Jacksonville Center
11:22AM 34.5144 -81.1161 194° South 290 334 22,200 1,260 Climbing Jacksonville Center
11:23AM 34.4314 -81.1356 191° South 303 349 23,500 1,200 Climbing Jacksonville Center
11:24AM 34.3461 -81.1547 191° South 313 360 24,700 1,260 Climbing Jacksonville Center
11:25AM 34.2525 -81.1742 190° South 313 360 26,000 600 Climbing Jacksonville Center
11:26AM 34.1567 -81.1936 190° South 323 372 26,000 480 Level Jacksonville Center
11:27AM 34.0589 -81.2181 192° South 351 404 27,000 1,200 Climbing Jacksonville Center
11:28AM 33.9675 -81.2375 190° South 357 411 28,400 1,260 Climbing Jacksonville Center
11:29AM 33.8697 -81.2592 190° South 352 405 29,600 960 Climbing Jacksonville Center
11:30AM 33.7739 -81.2811 191° South 352 405 30,400 720 Climbing Jacksonville Center
11:31AM 33.6761 -81.3078 193° South 352 405 31,100 840 Climbing Jacksonville Center
11:32AM 33.5783 -81.3294 190° South 352 405 32,100 960 Climbing Jacksonville Center
11:33AM 33.4828 -81.3511 191° South 352 405 33,100 1,020 Climbing Jacksonville Center
11:34AM 33.3828 -81.3703 189° South 357 411 34,200 1,080 Climbing Jacksonville Center
11:35AM 33.2869 -81.3917 191° South 357 411 35,300 780 Climbing Jacksonville Center
11:36AM 33.1869 -81.4158 191° South 362 417 35,800 300 Climbing Jacksonville Center
11:37AM 33.0872 -81.4397 191° South 362 417 36,000 60 Climbing Jacksonville Center
11:38AM 32.9853 -81.4858 201° Southwest 374 430 36,000  Level Jacksonville Center
11:39AM 32.8817 -81.5369 203° Southwest 387 445 36,000  Level Jacksonville Center
11:40AM 32.7778 -81.5881 202° Southwest 398 458 36,000  Level Jacksonville Center
11:41AM 32.6864 -81.6289 201° Southwest 398 458 36,000  Level Jacksonville Center
11:42AM 32.5844 -81.6794 203° Southwest 392 451 36,000  Level Jacksonville Center
11:43AM 32.4722 -81.7328 202° Southwest 392 451 36,000  Level Jacksonville Center
11:44AM 32.3706 -81.7808 202° Southwest 397 457 36,000  Level Jacksonville Center
11:45AM 32.2811 -81.8236 202° Southwest 388 447 36,000  Level Jacksonville Center
11:46AM 32.1833 -81.8739 204° Southwest 388 447 36,000  Level Jacksonville Center
11:47AM 32.0711 -81.9242 201° Southwest 388 447 36,000  Level Jacksonville Center
11:48AM 31.9733 -81.9742 203° Southwest 393 452 36,000  Level Jacksonville Center
11:49AM 31.8711 -82.0192 200° South 393 452 36,000  Level Jacksonville Center
11:50AM 31.7797 -82.0592 200° South 387 445 36,000  Level Jacksonville Center
11:51AM 31.6714 -82.1114 202° Southwest 387 445 36,000  Level Jacksonville Center
11:52AM 31.5839 -82.1511 201° Southwest 387 445 36,000  Level Jacksonville Center
11:53AM 31.4839 -82.2006 203° Southwest 393 452 36,000  Level Jacksonville Center
11:54AM 31.3839 -82.2453 201° Southwest 393 452 36,000  Level Jacksonville Center
11:55AM 31.2839 -82.2922 202° Southwest 393 452 36,000  Level Jacksonville Center
11:56AM 31.1881 -82.3364 202° Southwest 388 447 36,000  Level Jacksonville Center
11:57AM 31.0881 -82.3808 201° Southwest 383 441 36,000  Level Jacksonville Center
11:58AM 30.9922 -82.4225 200° South 383 441 36,000  Level Jacksonville Center
11:59AM 30.8983 -82.4689 203° Southwest 378 435 36,000  Level Jacksonville Center
12:00PM 30.8025 -82.5106 200° South 372 428 36,000  Level Jacksonville Center
12:01PM 30.7067 -82.5544 201° Southwest 372 428 36,000  Level Jacksonville Center
12:02PM 30.6064 -82.6006 202° Southwest 377 434 36,100 420 Climbing Jacksonville Center
12:03PM 30.5147 -82.6417 201° Southwest 372 428 36,900 420 Climbing Jacksonville Center
12:04PM 30.4144 -82.6806 198° South 364 419 37,000  Climbing Jacksonville Center
12:05PM 30.3186 -82.7242 201° Southwest 364 419 37,000  Level Jacksonville Center
12:06PM 30.2225 -82.7700 202° Southwest 375 432 37,000  Level Jacksonville Center
12:07PM 30.1267 -82.8133 201° Southwest 375 432 37,000  Level Jacksonville Center
12:08PM 30.0328 -82.8542 201° Southwest 375 432 37,000  Level Jacksonville Center
12:09PM 29.9367 -82.9022 203° Southwest 375 432 37,000  Level Jacksonville Center
12:10PM 29.8447 -82.9428 201° Southwest 369 425 37,000  Level Jacksonville Center
12:11PM 29.7508 -82.9858 202° Southwest 369 425 37,000  Level Jacksonville Center
12:12PM 29.6547 -83.0119 193° South 361 415 37,000  Level Jacksonville Center
12:13PM 29.5567 -83.0358 192° South 360 414 37,000  Level Jacksonville Center
12:14PM 29.4647 -83.0572 191° South 360 414 37,000  Level Jacksonville Center
12:15PM 29.3686 -83.0831 193° South 360 414 37,000  Level Jacksonville Center
12:16PM 29.2725 -83.1069 192° South 355 409 37,000  Level Jacksonville Center
12:17PM 29.1744 -83.1328 193° South 355 409 37,000  Level Jacksonville Center
12:18PM 29.0742 -83.1586 193° South 355 409 37,000  Level Jacksonville Center
12:20PM 28.8800 -83.2081 193° South 355 409 37,000  Level Jacksonville Center
12:21PM 28.7819 -83.2336 193° South 360 414 37,000  Level Jacksonville Center
12:23PM 28.6075 -83.2769 192° South 362 417 37,000  Level Miami Center
12:24PM 28.4894 -83.3081 193° South 362 417 37,000 -60 Level Miami Center
12:25PM 28.3692 -83.3364 192° South 362 417 36,900 -960 Descending Miami Center
12:26PM 28.2742 -83.3639 194° South 376 433 35,100 -960 Descending Miami Center
12:27PM 28.1444 -83.3728 183° South 389 448 35,000 -60 Descending Miami Center
12:28PM 28.0417 -83.3433 166° South 382 440 35,000  Level Miami Center
12:29PM 27.9467 -83.2769 148° Southeast 382 440 35,000  Level Miami Center
12:30PM 27.8514 -83.2128 149° Southeast 387 445 35,000  Level Miami Center
12:31PM 27.7583 -83.1444 147° Southeast 394 453 35,000 -600 Level Miami Center
12:32PM 27.6633 -83.0758 147° Southeast 394 453 33,900 -1,680 Descending Miami Center
12:33PM 27.5619 -83.0094 150° Southeast 407 468 31,700 -2,220 Descending Miami Center
12:34PM 27.4628 -82.9386 148° Southeast 412 474 29,500 -2,040 Descending Miami Center
12:35PM 27.3878 -82.8856 148° Southeast 412 474 27,700 -1,920 Descending Miami Center
12:36PM 27.2719 -82.8072 149° Southeast 412 474 25,300 -2,160 Descending Miami Center
12:37PM 27.1725 -82.7414 150° Southeast 412 474 23,000 -2,400 Descending Miami Center
12:38PM 27.0628 -82.6661 149° Southeast 400 460 20,500 -2,280 Descending Miami Center
12:39PM 26.9736 -82.6033 148° Southeast 389 448 18,500 -1,980 Descending Miami Center
12:40PM 26.8678 -82.5331 149° Southeast 376 433 16,200 -1,860 Descending Miami Center
12:41PM 26.7883 -82.4803 149° Southeast 349 402 14,500 -1,800 Descending Miami Center
12:42PM 26.7114 -82.4256 148° Southeast 337 388 12,700 -1,740 Descending Miami Center
12:43PM 26.6339 -82.3731 149° Southeast 327 376 11,100 -1,560 Descending Miami Center
12:44PM 26.5647 -82.3233 147° Southeast 312 359 9,600 -1,500 Descending Miami Center
12:45PM 26.5081 -82.2767 144° Southeast 294 338 8,100 -1,500 Descending Miami Center
12:46PM 26.4519 -82.2139 135° Southeast 289 333 6,600 -1,500 Descending Miami Center
12:47PM 26.4000 -82.1511 133° Southeast 277 319 5,200 -840 Descending Miami Center
12:48PM 26.3478 -82.0956 136° Southeast 261 300 5,000 -180 Descending Miami Center
12:49PM 26.3000 -82.0333 131° Southeast 261 300 4,900 -120 Descending Miami Center
12:51PM 26.2434 -81.9343 122° Southeast  Level Estimated
12:58PM 26.1524 -81.7756 123° Southeast  Level Estimated
12:59PM 26.1524 -81.7756 36° Northeast  Level Estimated
01:00PM 26.1524 -81.7756 36° Northeast  Level Estimated